Time;durP1;ratioP1;P1;durP2;ratioP2;P2;SDS_P1;SDS_P2;PMS_P1;PMS_P2;Temp;Humidity;BMP_temperature;BMP_pressure;BME280_temperature;BME280_humidity;BME280_pressure;Samples;Min_cycle;Max_cycle;Signal;HPM_P1;HPM_P2
2022/09/30 00:02:13;;;;;;;;;;;21.40;44.70;20.20;100338.00;;;;5095667;28;19999;-71
2022/09/30 00:04:59;;;;;;;;;;;21.40;44.70;20.20;100336.00;;;;5103863;28;20006;-71
2022/09/30 00:07:45;;;;;;;;;;;21.40;44.70;20.20;100337.00;;;;5092431;28;19920;-71
2022/09/30 00:10:31;;;;;;;;;;;21.50;44.80;20.20;100334.00;;;;5091860;28;19916;-71
2022/09/30 00:13:17;;;;;;;;;;;21.40;44.70;20.20;100342.00;;;;5097686;28;19916;-71
2022/09/30 00:16:03;;;;;;;;;;;21.50;44.70;20.20;100348.00;;;;5097505;28;19927;-71
2022/09/30 00:18:49;;;;;;;;;;;21.40;44.70;20.20;100348.00;;;;5094370;28;19959;-71
2022/09/30 00:21:35;;;;;;;;;;;21.40;44.70;20.20;100352.00;;;;5093723;28;19916;-71
2022/09/30 00:24:21;;;;;;;;;;;21.40;44.70;20.20;100350.00;;;;5094245;28;19916;-71
2022/09/30 00:27:07;;;;;;;;;;;21.40;44.70;20.20;100350.00;;;;5100466;28;20341;-71
2022/09/30 00:29:53;;;;;;;;;;;21.40;44.70;20.20;100358.00;;;;5099421;28;19920;-71
2022/09/30 00:32:39;;;;;;;;;;;21.40;44.70;20.20;100356.00;;;;5097774;28;19943;-71
2022/09/30 00:35:25;;;;;;;;;;;21.40;44.70;20.20;100361.00;;;;5096796;28;20242;-71
2022/09/30 00:38:11;;;;;;;;;;;21.40;44.70;20.20;100364.00;;;;5099814;28;19916;-71
2022/09/30 00:40:58;;;;;;;;;;;21.40;44.70;20.20;100363.00;;;;5101884;28;19938;-71
2022/09/30 00:43:50;;;;;;;;;;;21.40;44.70;20.20;100370.00;;;;5085470;28;19974;-71
2022/09/30 00:46:39;;;;;;;;;;;21.40;44.70;20.20;100373.00;;;;5106548;27;19920;-71
2022/09/30 00:49:25;;;;;;;;;;;21.40;44.70;20.10;100373.00;;;;5101775;28;19924;-71
2022/09/30 00:52:11;;;;;;;;;;;21.30;44.60;20.10;100370.00;;;;5093094;28;19973;-71
2022/09/30 00:54:57;;;;;;;;;;;21.40;44.70;20.10;100364.00;;;;5103030;28;19916;-71
2022/09/30 00:57:43;;;;;;;;;;;21.40;44.70;20.10;100371.00;;;;5109397;27;19955;-71
2022/09/30 01:00:29;;;;;;;;;;;21.30;44.60;20.10;100367.00;;;;5113464;27;19920;-71
2022/09/30 01:03:15;;;;;;;;;;;21.30;44.60;20.10;100367.00;;;;5101568;28;19919;-71
2022/09/30 01:06:01;;;;;;;;;;;21.20;44.50;20.10;100367.00;;;;5097213;28;19924;-71
2022/09/30 01:08:47;;;;;;;;;;;21.30;44.60;20.10;100359.00;;;;5100472;28;19920;-71
2022/09/30 01:11:33;;;;;;;;;;;21.40;44.60;20.10;100370.00;;;;5092036;28;19916;-71
2022/09/30 01:14:21;;;;;;;;;;;21.30;44.60;20.10;100372.00;;;;5115748;27;20346;-71
2022/09/30 01:17:22;;;;;;;;;;;21.30;44.60;20.10;100362.00;;;;5115637;27;19916;-71
2022/09/30 01:20:25;;;;;;;;;;;21.30;44.60;20.10;100370.00;;;;5107742;27;20297;-71
2022/09/30 01:23:36;;;;;;;;;;;21.30;44.60;20.10;100374.00;;;;5099789;28;19915;-71
2022/09/30 01:26:36;;;;;;;;;;;21.30;44.60;20.10;100373.00;;;;5112002;27;20008;-71
2022/09/30 01:30:00;;;;;;;;;;;21.30;44.60;20.10;100367.00;;;;5093598;28;19920;-71
2022/09/30 01:33:40;;;;;;;;;;;21.30;44.60;20.00;100379.00;;;;5085940;28;19920;-71
2022/09/30 01:36:42;;;;;;;;;;;21.30;44.60;20.00;100382.00;;;;5051438;28;20010;-71
2022/09/30 01:39:36;;;;;;;;;;;21.30;44.60;20.00;100381.00;;;;5076323;28;19916;-71
2022/09/30 01:42:41;;;;;;;;;;;21.20;44.60;20.00;100386.00;;;;5113102;27;20005;-71
2022/09/30 01:45:36;;;;;;;;;;;21.20;44.50;20.00;100387.00;;;;5093295;28;19915;-71
2022/09/30 01:48:56;;;;;;;;;;;21.20;44.60;20.00;100391.00;;;;5092919;28;20021;-71
2022/09/30 01:52:15;;;;;;;;;;;21.20;44.60;20.00;100386.00;;;;5111438;27;19916;-71
2022/09/30 01:55:10;;;;;;;;;;;21.20;44.60;20.00;100381.00;;;;5100993;28;19920;-71
2022/09/30 01:57:59;;;;;;;;;;;21.20;44.50;20.00;100382.00;;;;5093248;28;19916;-71
2022/09/30 02:00:48;;;;;;;;;;;21.20;44.60;20.00;100394.00;;;;5116360;27;20013;-71
2022/09/30 02:03:37;;;;;;;;;;;21.20;44.60;20.00;100394.00;;;;5094347;28;20350;-71
2022/09/30 02:06:25;;;;;;;;;;;21.20;44.50;20.00;100390.00;;;;5093109;28;20284;-71
2022/09/30 02:09:19;;;;;;;;;;;21.20;44.50;20.00;100384.00;;;;5095549;28;19980;-71
2022/09/30 02:12:07;;;;;;;;;;;21.20;44.60;20.00;100389.00;;;;5097349;28;19920;-71
2022/09/30 02:15:06;;;;;;;;;;;21.20;44.50;20.00;100389.00;;;;5086511;28;20357;-71
2022/09/30 02:17:55;;;;;;;;;;;21.20;44.50;20.00;100391.00;;;;5079240;28;19971;-71
2022/09/30 02:20:41;;;;;;;;;;;21.20;44.50;20.00;100403.00;;;;5072361;28;19916;-71
2022/09/30 02:23:32;;;;;;;;;;;21.10;44.40;20.00;100401.00;;;;5107472;27;19920;-71
2022/09/30 02:26:20;;;;;;;;;;;21.20;44.50;20.00;100397.00;;;;5097774;28;20034;-71
2022/09/30 02:29:28;;;;;;;;;;;21.20;44.50;20.00;100403.00;;;;5094473;28;19959;-71
2022/09/30 02:32:17;;;;;;;;;;;21.20;44.50;20.00;100403.00;;;;5104845;27;19961;-71
2022/09/30 02:35:06;;;;;;;;;;;21.20;44.50;20.00;100396.00;;;;5093021;28;20346;-70
2022/09/30 02:37:55;;;;;;;;;;;21.20;44.50;20.00;100401.00;;;;5065721;28;19923;-71
2022/09/30 02:40:43;;;;;;;;;;;21.20;44.50;20.00;100404.00;;;;5090801;28;20274;-71
2022/09/30 02:43:29;;;;;;;;;;;21.20;44.40;20.00;100408.00;;;;5092169;28;19934;-71
2022/09/30 02:46:42;;;;;;;;;;;21.20;44.40;20.00;100417.00;;;;5096442;28;19915;-71
2022/09/30 02:49:37;;;;;;;;;;;21.20;44.40;20.00;100408.00;;;;5109100;27;20190;-71
2022/09/30 02:52:35;;;;;;;;;;;21.20;44.40;20.00;100406.00;;;;5094492;28;20366;-70
2022/09/30 02:55:31;;;;;;;;;;;21.20;44.40;20.00;100411.00;;;;5096010;28;20305;-71
2022/09/30 02:58:19;;;;;;;;;;;21.20;44.40;19.90;100406.00;;;;5096457;28;19939;-71
2022/09/30 03:01:06;;;;;;;;;;;21.20;44.40;19.90;100414.00;;;;5106248;27;19945;-71
2022/09/30 03:03:58;;;;;;;;;;;21.20;44.40;20.00;100407.00;;;;5093163;28;19919;-71
2022/09/30 03:06:44;;;;;;;;;;;21.20;44.40;19.90;100413.00;;;;5096864;28;19920;-71
2022/09/30 03:09:30;;;;;;;;;;;21.20;44.40;19.90;100417.00;;;;5092982;28;19930;-71
2022/09/30 03:12:40;;;;;;;;;;;21.10;44.30;19.90;100421.00;;;;5092122;28;19915;-71
2022/09/30 03:15:41;;;;;;;;;;;21.10;44.30;19.90;100420.00;;;;5083487;28;20366;-71
2022/09/30 03:18:35;;;;;;;;;;;21.10;44.30;19.90;100433.00;;;;5093144;28;19916;-71
2022/09/30 03:21:49;;;;;;;;;;;21.10;44.30;19.90;100431.00;;;;5095739;28;19982;-71
2022/09/30 03:24:40;;;;;;;;;;;21.10;44.30;19.90;100418.00;;;;5102133;28;19919;-71
2022/09/30 03:27:45;;;;;;;;;;;21.10;44.30;19.90;100428.00;;;;5096662;28;19971;-71
2022/09/30 03:30:31;;;;;;;;;;;21.10;44.30;19.90;100436.00;;;;5103717;28;19916;-71
2022/09/30 03:33:30;;;;;;;;;;;21.10;44.30;19.90;100433.00;;;;5105799;28;19916;-71
2022/09/30 03:36:18;;;;;;;;;;;21.10;44.30;19.90;100434.00;;;;5084171;28;19927;-71
2022/09/30 03:39:12;;;;;;;;;;;21.10;44.30;19.90;100440.00;;;;5092188;28;19930;-71
2022/09/30 03:42:06;;;;;;;;;;;21.10;44.30;19.90;100443.00;;;;5105061;28;20438;-71
2022/09/30 03:45:07;;;;;;;;;;;21.10;44.30;19.90;100451.00;;;;5102622;28;19927;-71
2022/09/30 03:47:54;;;;;;;;;;;21.10;44.30;19.90;100450.00;;;;5108055;28;20326;-71
2022/09/30 03:50:40;;;;;;;;;;;21.10;44.30;19.90;100455.00;;;;5111453;27;20173;-71
2022/09/30 03:53:27;;;;;;;;;;;21.10;44.30;19.90;100457.00;;;;5093937;28;19916;-71
2022/09/30 03:56:13;;;;;;;;;;;21.10;44.30;19.90;100463.00;;;;5086445;28;20332;-71
2022/09/30 03:58:59;;;;;;;;;;;21.10;44.30;19.90;100465.00;;;;5097596;28;20258;-71
2022/09/30 04:01:45;;;;;;;;;;;21.10;44.30;19.90;100459.00;;;;5097950;28;19916;-71
2022/09/30 04:04:31;;;;;;;;;;;21.10;44.20;19.90;100450.00;;;;5099238;28;19923;-71
2022/09/30 04:07:17;;;;;;;;;;;21.00;44.20;19.90;100455.00;;;;5093555;28;19947;-71
2022/09/30 04:10:04;;;;;;;;;;;21.10;44.20;19.80;100452.00;;;;5100437;28;19916;-71
2022/09/30 04:12:52;;;;;;;;;;;21.00;44.20;19.80;100461.00;;;;5105042;28;19916;-71
2022/09/30 04:15:39;;;;;;;;;;;21.00;44.10;19.80;100462.00;;;;5101096;28;19920;-71
2022/09/30 04:18:25;;;;;;;;;;;21.10;44.20;19.80;100464.00;;;;5098371;28;19916;-71
2022/09/30 04:21:12;;;;;;;;;;;21.10;44.20;19.80;100461.00;;;;5097961;28;20289;-71
2022/09/30 04:23:58;;;;;;;;;;;21.00;44.20;19.80;100463.00;;;;5112080;27;20254;-71
2022/09/30 04:26:44;;;;;;;;;;;21.00;44.20;19.80;100475.00;;;;5110104;27;20262;-71
2022/09/30 04:29:30;;;;;;;;;;;21.00;44.20;19.80;100479.00;;;;5098509;28;19966;-71
2022/09/30 04:32:16;;;;;;;;;;;21.00;44.10;19.80;100479.00;;;;5100536;28;19920;-71
2022/09/30 04:35:02;;;;;;;;;;;21.10;44.20;19.80;100481.00;;;;5105175;28;19916;-71
2022/09/30 04:37:48;;;;;;;;;;;21.00;44.10;19.80;100481.00;;;;5097514;28;19945;-71
2022/09/30 04:40:38;;;;;;;;;;;21.00;44.10;19.80;100488.00;;;;5098035;28;19922;-71
2022/09/30 04:43:24;;;;;;;;;;;21.00;44.10;19.80;100491.00;;;;5086804;28;19984;-70
2022/09/30 04:46:10;;;;;;;;;;;21.00;44.10;19.80;100502.00;;;;5084271;28;20270;-71
2022/09/30 04:48:56;;;;;;;;;;;21.00;44.10;19.80;100490.00;;;;5118175;27;20391;-71
2022/09/30 04:51:44;;;;;;;;;;;21.00;44.20;19.80;100507.00;;;;5100605;28;19916;-71
2022/09/30 04:54:30;;;;;;;;;;;21.00;44.10;19.80;100505.00;;;;5098160;28;20322;-71
2022/09/30 04:57:16;;;;;;;;;;;21.00;44.10;19.80;100502.00;;;;5096607;28;19919;-71
2022/09/30 05:00:03;;;;;;;;;;;21.00;44.10;19.80;100514.00;;;;5094793;28;20380;-71
2022/09/30 05:02:49;;;;;;;;;;;21.00;44.10;19.70;100511.00;;;;5102883;28;20357;-71
2022/09/30 05:05:35;;;;;;;;;;;21.00;44.10;19.80;100507.00;;;;5099250;28;20246;-71
2022/09/30 05:08:21;;;;;;;;;;;21.00;44.10;19.70;100494.00;;;;5100051;28;19920;-71
2022/09/30 05:11:09;;;;;;;;;;;21.00;44.10;19.80;100499.00;;;;5102135;28;19923;-71
2022/09/30 05:13:54;;;;;;;;;;;21.00;44.10;19.70;100498.00;;;;5099955;28;19920;-71
2022/09/30 05:16:40;;;;;;;;;;;20.90;44.00;19.70;100497.00;;;;5093168;28;19939;-71
2022/09/30 05:19:27;;;;;;;;;;;21.00;44.00;19.70;100497.00;;;;5105048;28;19916;-71
2022/09/30 05:22:13;;;;;;;;;;;20.90;44.00;19.70;100508.00;;;;5096139;28;19963;-71
2022/09/30 05:25:01;;;;;;;;;;;21.00;44.00;19.70;100504.00;;;;5113143;27;20389;-71
2022/09/30 05:27:48;;;;;;;;;;;21.00;44.00;19.70;100511.00;;;;5101474;28;19924;-71
2022/09/30 05:30:34;;;;;;;;;;;21.00;44.00;19.70;100510.00;;;;5106235;27;19916;-71
2022/09/30 05:33:20;;;;;;;;;;;20.90;44.00;19.70;100520.00;;;;5099875;28;19916;-71
2022/09/30 05:36:07;;;;;;;;;;;20.90;44.00;19.70;100531.00;;;;5094948;28;19926;-71
2022/09/30 05:38:53;;;;;;;;;;;20.90;44.00;19.70;100533.00;;;;5104403;28;19916;-71
2022/09/30 05:41:39;;;;;;;;;;;20.90;44.00;19.70;100538.00;;;;5097254;28;19920;-71
2022/09/30 05:44:25;;;;;;;;;;;20.90;44.00;19.70;100535.00;;;;5096872;28;19916;-71
2022/09/30 05:47:11;;;;;;;;;;;20.90;43.90;19.70;100548.00;;;;5093108;28;20025;-71
2022/09/30 05:49:57;;;;;;;;;;;20.90;44.00;19.70;100547.00;;;;5097496;28;19920;-71
2022/09/30 05:52:43;;;;;;;;;;;20.90;44.00;19.70;100539.00;;;;5096069;27;20316;-71
2022/09/30 05:55:29;;;;;;;;;;;20.90;44.00;19.70;100540.00;;;;5102777;28;19934;-71
2022/09/30 05:58:15;;;;;;;;;;;20.90;43.90;19.70;100549.00;;;;5097068;28;19958;-71
2022/09/30 06:01:06;;;;;;;;;;;20.80;43.90;19.70;100552.00;;;;5100800;28;19919;-71
2022/09/30 06:03:52;;;;;;;;;;;20.90;43.90;19.70;100551.00;;;;5094863;28;19945;-71
2022/09/30 06:06:38;;;;;;;;;;;20.90;43.90;19.70;100558.00;;;;5097837;28;19922;-71
2022/09/30 06:09:24;;;;;;;;;;;20.90;43.90;19.70;100556.00;;;;5100521;28;19919;-71
2022/09/30 06:12:10;;;;;;;;;;;20.90;43.90;19.70;100555.00;;;;5094422;28;19920;-70
2022/09/30 06:14:56;;;;;;;;;;;20.90;43.90;19.70;100556.00;;;;5101009;28;19999;-71
2022/09/30 06:17:42;;;;;;;;;;;20.90;43.90;19.70;100563.00;;;;5093773;28;19930;-71
2022/09/30 06:20:28;;;;;;;;;;;20.90;43.90;19.60;100556.00;;;;5097242;28;19916;-70
2022/09/30 06:23:14;;;;;;;;;;;20.90;43.90;19.60;100560.00;;;;5097872;28;20017;-71
2022/09/30 06:26:01;;;;;;;;;;;20.90;43.90;19.70;100555.00;;;;5099613;28;19935;-71
2022/09/30 06:28:47;;;;;;;;;;;20.90;43.90;19.70;100563.00;;;;5109250;27;20377;-71
2022/09/30 06:31:33;;;;;;;;;;;20.80;43.80;19.70;100556.00;;;;5102097;27;19942;-71
2022/09/30 06:34:19;;;;;;;;;;;20.90;43.90;19.60;100565.00;;;;5099824;28;19924;-71
2022/09/30 06:37:05;;;;;;;;;;;20.90;43.90;19.70;100565.00;;;;5098932;27;19923;-71
2022/09/30 06:39:51;;;;;;;;;;;21.00;43.90;19.60;100576.00;;;;5094118;28;20273;-71
2022/09/30 06:42:37;;;;;;;;;;;20.90;43.90;19.60;100564.00;;;;5098477;28;20393;-71
2022/09/30 06:45:23;;;;;;;;;;;20.90;43.80;19.60;100574.00;;;;5092922;28;19920;-71
2022/09/30 06:48:09;;;;;;;;;;;20.90;43.90;19.60;100577.00;;;;5095532;28;20314;-71
2022/09/30 06:50:59;;;;;;;;;;;20.90;43.90;19.70;100589.00;;;;5088954;28;19916;-71
2022/09/30 06:53:49;;;;;;;;;;;20.90;43.90;19.60;100588.00;;;;5097099;28;20402;-71
2022/09/30 06:56:35;;;;;;;;;;;20.90;43.90;19.70;100587.00;;;;5095641;28;20049;-71
2022/09/30 06:59:24;;;;;;;;;;;20.90;43.80;19.70;100594.00;;;;5090908;28;19955;-71
2022/09/30 07:02:11;;;;;;;;;;;20.90;43.80;19.70;100594.00;;;;5108777;27;19920;-71
2022/09/30 07:04:57;;;;;;;;;;;20.90;43.80;19.70;100600.00;;;;5091988;28;20017;-71
2022/09/30 07:07:43;;;;;;;;;;;20.90;43.80;19.70;100600.00;;;;5094359;28;19920;-71
2022/09/30 07:10:29;;;;;;;;;;;20.90;43.90;19.70;100593.00;;;;5094882;28;19920;-71
2022/09/30 07:13:15;;;;;;;;;;;20.90;43.80;19.70;100595.00;;;;5094305;28;19916;-71
2022/09/30 07:16:01;;;;;;;;;;;20.90;43.80;19.70;100605.00;;;;5101122;28;19969;-71
2022/09/30 07:18:47;;;;;;;;;;;20.90;43.80;19.70;100600.00;;;;5097619;28;19916;-71
2022/09/30 07:21:33;;;;;;;;;;;20.90;43.80;19.70;100599.00;;;;5092797;28;19927;-71
2022/09/30 07:24:19;;;;;;;;;;;20.90;43.80;19.70;100602.00;;;;5097567;28;20442;-71
2022/09/30 07:27:05;;;;;;;;;;;20.90;43.80;19.70;100607.00;;;;5088634;28;19919;-71
2022/09/30 07:29:51;;;;;;;;;;;20.90;43.70;19.70;100600.00;;;;5104485;27;20041;-70
2022/09/30 07:32:37;;;;;;;;;;;20.90;43.80;19.70;100606.00;;;;5082652;28;19931;-71
2022/09/30 07:35:23;;;;;;;;;;;20.90;43.70;19.70;100603.00;;;;5099457;28;19981;-71
2022/09/30 07:38:09;;;;;;;;;;;21.00;43.80;19.70;100601.00;;;;5098688;28;20335;-71
2022/09/30 07:40:57;;;;;;;;;;;20.90;44.40;19.70;100604.00;;;;5101982;27;19915;-70
2022/09/30 07:43:43;;;;;;;;;;;21.00;43.70;19.70;100615.00;;;;5100230;28;19977;-71
2022/09/30 07:46:30;;;;;;;;;;;21.00;43.80;19.70;100603.00;;;;5096585;28;20004;-71
2022/09/30 07:49:23;;;;;;;;;;;20.90;43.70;19.70;100603.00;;;;5099028;27;20136;-71
2022/09/30 07:52:09;;;;;;;;;;;21.00;43.70;19.70;100599.00;;;;5110778;27;20006;-71
2022/09/30 07:54:55;;;;;;;;;;;21.00;43.80;19.70;100599.00;;;;5116021;27;20026;-71
2022/09/30 07:57:41;;;;;;;;;;;21.00;43.70;19.70;100602.00;;;;5100841;28;19923;-71
2022/09/30 08:00:27;;;;;;;;;;;21.00;43.70;19.70;100594.00;;;;5102900;27;19923;-71
2022/09/30 08:03:13;;;;;;;;;;;21.00;43.70;19.70;100604.00;;;;5098451;28;19915;-71
2022/09/30 08:06:07;;;;;;;;;;;21.00;43.70;19.70;100603.00;;;;5099925;27;20365;-71
2022/09/30 08:08:54;;;;;;;;;;;21.00;43.70;19.70;100608.00;;;;5083703;28;19924;-71
2022/09/30 08:11:41;;;;;;;;;;;21.00;43.70;19.70;100618.00;;;;5082786;28;19923;-71
2022/09/30 08:14:27;;;;;;;;;;;21.00;43.80;19.70;100621.00;;;;5097983;28;19916;-71
2022/09/30 08:17:13;;;;;;;;;;;21.00;43.70;19.70;100622.00;;;;5096203;28;20349;-70
2022/09/30 08:19:59;;;;;;;;;;;21.00;43.80;19.70;100615.00;;;;5100377;28;19916;-71
2022/09/30 08:22:45;;;;;;;;;;;21.00;43.80;19.70;100616.00;;;;5095031;28;19920;-71
2022/09/30 08:25:31;;;;;;;;;;;21.00;43.80;19.70;100615.00;;;;5109211;27;19927;-71
2022/09/30 08:28:17;;;;;;;;;;;21.00;43.80;19.70;100630.00;;;;5096018;27;20026;-71
2022/09/30 08:31:08;;;;;;;;;;;21.00;43.80;19.70;100622.00;;;;5097921;28;19915;-71
2022/09/30 08:33:54;;;;;;;;;;;21.10;43.90;19.70;100617.00;;;;5095460;28;19916;-71
2022/09/30 08:36:41;;;;;;;;;;;21.00;43.80;19.70;100622.00;;;;5084310;28;20334;-71
2022/09/30 08:39:27;;;;;;;;;;;21.10;43.90;19.70;100630.00;;;;5109318;27;20293;-71
2022/09/30 08:42:32;;;;;;;;;;;21.10;43.90;19.70;100629.00;;;;5102711;28;20269;-71
2022/09/30 08:45:27;;;;;;;;;;;21.00;43.80;19.80;100616.00;;;;5109463;27;20247;-71
2022/09/30 08:48:21;;;;;;;;;;;21.10;43.80;19.70;100618.00;;;;5096131;28;20281;-71
2022/09/30 08:51:49;;;;;;;;;;;21.00;43.80;19.70;100620.00;;;;5111575;27;20361;-71
2022/09/30 08:54:35;;;;;;;;;;;21.10;43.90;19.80;100625.00;;;;5101093;27;19927;-71
2022/09/30 08:57:21;;;;;;;;;;;21.10;43.90;19.80;100616.00;;;;5092564;28;20321;-71
2022/09/30 09:00:11;;;;;;;;;;;21.10;43.90;19.80;100620.00;;;;5102268;28;19959;-71
2022/09/30 09:02:58;;;;;;;;;;;21.10;43.90;19.80;100618.00;;;;5081582;28;19922;-71
2022/09/30 09:06:35;;;;;;;;;;;21.10;43.90;19.80;100612.00;;;;5111336;27;19916;-71
2022/09/30 09:09:24;;;;;;;;;;;21.10;43.90;19.80;100615.00;;;;5079193;28;19927;-71
2022/09/30 09:12:33;;;;;;;;;;;21.10;43.90;19.80;100621.00;;;;5094175;28;19919;-70
2022/09/30 09:15:38;;;;;;;;;;;21.10;43.90;19.80;100621.00;;;;5109653;27;19919;-70
2022/09/30 09:18:33;;;;;;;;;;;21.10;43.90;19.80;100632.00;;;;5094654;28;19948;-70
2022/09/30 09:21:23;;;;;;;;;;;21.10;43.90;19.80;100627.00;;;;5091504;28;19920;-70
2022/09/30 09:24:15;;;;;;;;;;;21.10;43.90;19.80;100628.00;;;;5114271;27;20073;-71
2022/09/30 09:27:01;;;;;;;;;;;21.10;43.90;19.80;100622.00;;;;5097577;28;20497;-71
2022/09/30 09:30:20;;;;;;;;;;;21.10;43.90;19.80;100624.00;;;;5070351;28;19931;-71
2022/09/30 09:33:24;;;;;;;;;;;21.10;44.00;19.80;100625.00;;;;5080430;28;19920;-71
2022/09/30 09:36:17;;;;;;;;;;;21.10;44.00;19.80;100630.00;;;;5082523;27;20462;-71
2022/09/30 09:39:35;;;;;;;;;;;21.10;44.00;19.80;100624.00;;;;5111825;27;20006;-71
2022/09/30 09:42:50;;;;;;;;;;;21.20;44.00;19.80;100620.00;;;;5109308;27;19916;-71
2022/09/30 09:45:45;;;;;;;;;;;21.20;44.10;19.80;100625.00;;;;5110550;27;19915;-71
2022/09/30 09:48:34;;;;;;;;;;;21.20;44.10;19.80;100625.00;;;;5093414;28;20371;-71
2022/09/30 09:51:40;;;;;;;;;;;21.20;44.10;19.80;100617.00;;;;5101316;28;19916;-71
2022/09/30 09:54:27;;;;;;;;;;;21.20;44.10;19.80;100621.00;;;;5110955;27;20289;-71
2022/09/30 09:57:17;;;;;;;;;;;21.20;44.10;19.80;100631.00;;;;5095815;28;19973;-71
2022/09/30 10:03:19;;;;;;;;;;;21.20;44.80;19.80;100626.00;;;;5096696;27;19923;-71
2022/09/30 10:06:09;;;;;;;;;;;21.20;44.10;19.80;100626.00;;;;5101969;28;19916;-71
2022/09/30 10:08:55;;;;;;;;;;;21.20;44.10;19.80;100626.00;;;;5095019;28;20475;-71
2022/09/30 10:11:41;;;;;;;;;;;21.20;44.10;19.80;100620.00;;;;5087080;27;19919;-70
2022/09/30 10:14:27;;;;;;;;;;;21.20;44.10;19.80;100618.00;;;;5081845;27;20317;-70
2022/09/30 10:17:25;;;;;;;;;;;21.20;44.20;19.90;100622.00;;;;5085097;28;19920;-70
2022/09/30 10:20:14;;;;;;;;;;;21.20;44.10;19.90;100617.00;;;;5110826;27;19923;-70
2022/09/30 10:23:07;;;;;;;;;;;21.20;44.10;19.90;100615.00;;;;5094250;28;19919;-71
2022/09/30 10:26:15;;;;;;;;;;;21.20;44.10;19.80;100620.00;;;;5109274;27;20447;-71
2022/09/30 10:29:03;;;;;;;;;;;21.20;44.10;19.80;100621.00;;;;5105985;27;19966;-70
2022/09/30 10:31:49;;;;;;;;;;;21.20;44.20;19.90;100618.00;;;;5086310;28;20006;-70
2022/09/30 10:34:37;;;;;;;;;;;21.20;44.20;19.90;100612.00;;;;5097732;28;20321;-71
2022/09/30 10:37:23;;;;;;;;;;;21.20;44.20;19.90;100608.00;;;;5097598;28;19943;-71
2022/09/30 10:40:11;;;;;;;;;;;21.20;44.20;19.90;100611.00;;;;5110432;27;20273;-71
2022/09/30 10:42:57;;;;;;;;;;;21.10;44.10;19.90;100614.00;;;;5099036;28;20011;-71
2022/09/30 10:45:43;;;;;;;;;;;21.20;44.20;19.90;100611.00;;;;5091169;28;19920;-70
2022/09/30 10:48:33;;;;;;;;;;;21.20;44.20;19.90;100611.00;;;;5109702;27;19924;-71
2022/09/30 10:51:32;;;;;;;;;;;21.20;44.20;19.90;100603.00;;;;5091922;28;19920;-71
2022/09/30 10:54:50;;;;;;;;;;;21.20;44.20;19.90;100603.00;;;;5105656;27;19916;-70
2022/09/30 10:57:36;;;;;;;;;;;21.20;44.20;19.90;100605.00;;;;5082807;28;19959;-70
2022/09/30 11:00:23;;;;;;;;;;;21.20;44.20;19.90;100608.00;;;;5107749;28;19916;-71
2022/09/30 11:03:12;;;;;;;;;;;21.20;44.20;19.90;100611.00;;;;5096870;28;20414;-70
2022/09/30 11:05:58;;;;;;;;;;;21.20;44.20;19.90;100615.00;;;;5108941;27;19931;-71
2022/09/30 11:08:50;;;;;;;;;;;21.20;44.20;19.90;100613.00;;;;5093291;28;19920;-71
2022/09/30 11:11:38;;;;;;;;;;;21.30;45.00;19.90;100610.00;;;;5109526;28;19919;-70
2022/09/30 11:14:57;;;;;;;;;;;21.30;44.20;19.90;100620.00;;;;5105136;28;19916;-71
2022/09/30 11:18:11;;;;;;;;;;;21.30;44.20;19.90;100622.00;;;;5079997;28;19964;-71
2022/09/30 11:21:00;;;;;;;;;;;21.30;44.20;19.90;100617.00;;;;5085778;28;20392;-71
2022/09/30 11:24:17;;;;;;;;;;;21.20;44.10;19.90;100620.00;;;;5094186;28;19927;-70
2022/09/30 11:27:22;;;;;;;;;;;21.30;44.10;19.90;100621.00;;;;5105368;28;20325;-70
2022/09/30 11:30:46;;;;;;;;;;;21.20;44.10;19.90;100617.00;;;;5110529;28;19959;-70
2022/09/30 11:33:47;;;;;;;;;;;21.30;44.20;19.90;100614.00;;;;5081617;28;19927;-71
2022/09/30 11:36:39;;;;;;;;;;;21.30;44.20;19.90;100615.00;;;;5093866;28;20289;-71
2022/09/30 11:39:35;;;;;;;;;;;21.30;44.20;19.90;100603.00;;;;5095043;28;20380;-71
2022/09/30 11:42:27;;;;;;;;;;;21.30;44.20;19.90;100603.00;;;;5111646;28;20365;-70
2022/09/30 11:45:52;;;;;;;;;;;21.30;44.10;19.90;100615.00;;;;5111793;28;19920;-70
2022/09/30 11:49:16;;;;;;;;;;;21.30;44.10;19.90;100615.00;;;;5097551;28;19956;-70
2022/09/30 11:52:14;;;;;;;;;;;21.30;44.10;19.90;100613.00;;;;5099731;28;20105;-70
2022/09/30 11:55:20;;;;;;;;;;;21.30;44.10;19.90;100607.00;;;;5098979;28;20360;-71
2022/09/30 11:58:13;;;;;;;;;;;21.30;44.00;19.90;100597.00;;;;5092522;28;20404;-71
2022/09/30 12:01:13;;;;;;;;;;;21.30;44.00;19.90;100597.00;;;;5096240;28;20007;-71
2022/09/30 12:04:13;;;;;;;;;;;21.30;44.00;19.90;100594.00;;;;5104477;28;19969;-71
2022/09/30 12:07:05;;;;;;;;;;;21.30;44.00;19.90;100600.00;;;;5094653;28;19920;-70
2022/09/30 12:10:00;;;;;;;;;;;21.30;44.00;19.90;100586.00;;;;5096025;28;20395;-70
2022/09/30 12:12:48;;;;;;;;;;;21.30;44.00;19.90;100590.00;;;;5098611;27;20427;-71
2022/09/30 12:15:34;;;;;;;;;;;21.30;44.00;19.90;100577.00;;;;5116559;27;19962;-70
2022/09/30 12:18:29;;;;;;;;;;;21.40;44.10;19.90;100582.00;;;;5097953;28;19916;-70
2022/09/30 12:21:29;;;;;;;;;;;21.30;44.00;19.90;100570.00;;;;5097576;28;19920;-70
2022/09/30 12:24:24;;;;;;;;;;;21.40;44.10;20.00;100570.00;;;;5098859;28;19927;-70
2022/09/30 12:28:00;;;;;;;;;;;21.40;44.00;19.90;100576.00;;;;5101536;28;20011;-70
2022/09/30 12:30:46;;;;;;;;;;;21.40;44.00;19.90;100578.00;;;;5094768;28;20373;-70
2022/09/30 12:33:46;;;;;;;;;;;21.40;44.00;19.90;100575.00;;;;5075204;28;20318;-71
2022/09/30 12:37:06;;;;;;;;;;;21.40;44.00;20.00;100577.00;;;;5105392;27;19920;-70
2022/09/30 12:40:10;;;;;;;;;;;21.40;43.90;20.00;100572.00;;;;5056113;28;20021;-70
2022/09/30 12:43:34;;;;;;;;;;;21.40;43.90;20.00;100565.00;;;;5090275;28;19920;-71
2022/09/30 12:46:41;;;;;;;;;;;21.40;43.90;20.00;100561.00;;;;5096423;28;19924;-71
2022/09/30 12:49:28;;;;;;;;;;;21.40;44.00;20.00;100551.00;;;;5096929;28;20237;-71
2022/09/30 12:52:16;;;;;;;;;;;21.40;43.90;20.00;100548.00;;;;5114975;27;20479;-72
2022/09/30 12:55:07;;;;;;;;;;;21.40;43.90;20.00;100541.00;;;;5110165;27;19916;-71
2022/09/30 12:57:53;;;;;;;;;;;21.40;43.90;20.00;100538.00;;;;5109681;27;19923;-71
2022/09/30 13:00:39;;;;;;;;;;;21.40;43.90;20.00;100537.00;;;;5100208;28;19924;-72
2022/09/30 13:03:26;;;;;;;;;;;21.50;43.90;20.00;100540.00;;;;5115969;27;19927;-71
2022/09/30 13:06:13;;;;;;;;;;;21.40;43.80;20.00;100536.00;;;;5096718;28;19972;-71
2022/09/30 13:09:15;;;;;;;;;;;21.40;43.90;20.00;100544.00;;;;5111100;27;20072;-71
2022/09/30 13:12:01;;;;;;;;;;;21.50;43.90;20.00;100533.00;;;;5082233;28;20112;-71
2022/09/30 13:14:47;;;;;;;;;;;21.40;43.80;20.00;100534.00;;;;5098484;28;19920;-72
2022/09/30 13:17:35;;;;;;;;;;;21.50;43.80;20.10;100530.00;;;;5094275;28;19969;-72
2022/09/30 13:20:53;;;;;;;;;;;21.50;43.80;20.10;100538.00;;;;5092199;28;19916;-72
2022/09/30 13:23:50;;;;;;;;;;;21.50;43.80;20.00;100540.00;;;;5082618;28;19931;-71
2022/09/30 13:26:40;;;;;;;;;;;21.50;43.70;20.00;100538.00;;;;5097390;28;19920;-71
2022/09/30 13:29:27;;;;;;;;;;;21.50;43.80;20.00;100527.00;;;;5110449;27;19928;-72
2022/09/30 13:32:37;;;;;;;;;;;21.50;43.70;20.10;100523.00;;;;5099450;28;20365;-72
2022/09/30 13:35:56;;;;;;;;;;;21.50;43.70;20.10;100514.00;;;;5110882;27;19971;-71
2022/09/30 13:38:42;;;;;;;;;;;21.50;43.70;20.10;100524.00;;;;5067197;28;20357;-71
2022/09/30 13:41:28;;;;;;;;;;;21.60;43.70;20.10;100524.00;;;;5096347;28;19916;-71
2022/09/30 13:44:18;;;;;;;;;;;21.60;43.70;20.10;100517.00;;;;5109055;27;19916;-72
2022/09/30 13:47:35;;;;;;;;;;;21.60;43.70;20.10;100511.00;;;;5100741;28;20353;-71
2022/09/30 13:50:28;;;;;;;;;;;21.60;43.70;20.10;100510.00;;;;5083244;28;19959;-71
2022/09/30 13:53:27;;;;;;;;;;;21.60;43.60;20.10;100511.00;;;;5110248;27;20373;-71
2022/09/30 13:56:33;;;;;;;;;;;21.60;43.70;20.10;100517.00;;;;5113675;27;19955;-71